Time;durP1;ratioP1;P1;durP2;ratioP2;P2;SDS_P1;SDS_P2;PMS_P1;PMS_P2;Temp;Humidity;BMP_temperature;BMP_pressure;BME280_temperature;BME280_humidity;BME280_pressure;Samples;Min_cycle;Max_cycle;Signal;HPM_P1;HPM_P2
2023/07/10 00:02:16;;;;;;;11.90;11.50;;;25.60;99.90;;;;;;5011761;28;20220;-62
2023/07/10 00:04:45;;;;;;;11.40;11.00;;;25.60;99.90;;;;;;5011532;28;20289;-60
2023/07/10 00:07:11;;;;;;;12.10;11.70;;;25.60;99.90;;;;;;5011805;28;20213;-61
2023/07/10 00:09:38;;;;;;;11.00;10.60;;;25.60;99.90;;;;;;5010539;28;20209;-60
2023/07/10 00:12:08;;;;;;;10.95;10.55;;;25.50;99.90;;;;;;5011225;28;20319;-58
2023/07/10 00:14:34;;;;;;;11.20;10.80;;;25.40;99.90;;;;;;5011709;28;20209;-61
2023/07/10 00:17:01;;;;;;;11.18;10.77;;;25.50;99.90;;;;;;5011721;28;20600;-59
2023/07/10 00:19:28;;;;;;;11.15;10.75;;;25.50;99.90;;;;;;5010122;28;20205;-60
2023/07/10 00:21:56;;;;;;;10.98;10.57;;;25.40;99.90;;;;;;5011006;28;20228;-59
2023/07/10 00:24:23;;;;;;;11.38;10.95;;;25.40;99.90;;;;;;5011390;28;20205;-61
2023/07/10 00:26:50;;;;;;;11.00;10.60;;;25.30;99.90;;;;;;5011380;28;20235;-59
2023/07/10 00:29:19;;;;;;;11.43;11.02;;;25.30;99.90;;;;;;5009094;28;20917;-59
2023/07/10 00:31:46;;;;;;;11.15;10.75;;;25.30;99.90;;;;;;5011120;28;20316;-60
2023/07/10 00:34:14;;;;;;;11.98;11.48;;;25.40;99.90;;;;;;5025804;28;20204;-59
2023/07/10 00:36:41;;;;;;;11.10;10.70;;;25.40;99.90;;;;;;5030866;28;20251;-59
2023/07/10 00:39:20;;;;;;;11.00;10.60;;;25.40;99.90;;;;;;5030578;28;20278;-61
2023/07/10 00:41:51;;;;;;;10.93;10.52;;;25.30;99.90;;;;;;5016692;28;20671;-61
2023/07/10 00:44:19;;;;;;;11.43;11.02;;;25.30;99.90;;;;;;5010935;28;20216;-59
2023/07/10 00:46:50;;;;;;;10.90;10.50;;;25.40;99.90;;;;;;5011319;28;20222;-59
2023/07/10 00:49:32;;;;;;;13.20;12.70;;;25.30;99.90;;;;;;5011679;28;20562;-62
2023/07/10 00:52:04;;;;;;;11.02;10.63;;;25.00;99.90;;;;;;5028120;28;20644;-60
2023/07/10 00:54:36;;;;;;;11.43;11.02;;;25.00;99.90;;;;;;5013598;28;20190;-58
2023/07/10 00:57:06;;;;;;;10.55;10.15;;;25.00;99.90;;;;;;5011751;28;20185;-59
2023/07/10 00:59:39;;;;;;;10.70;10.30;;;25.00;99.90;;;;;;5010370;28;20217;-58
2023/07/10 01:02:23;;;;;;;10.25;9.95;;;25.10;99.90;;;;;;5010633;28;20240;-60
2023/07/10 01:05:00;;;;;;;11.43;11.02;;;25.20;99.90;;;;;;5012730;28;20689;-60
2023/07/10 01:07:32;;;;;;;10.77;10.38;;;25.20;99.90;;;;;;5013741;28;20221;-61
2023/07/10 01:10:04;;;;;;;11.70;11.20;;;25.10;99.90;;;;;;5018611;28;20742;-59
2023/07/10 01:12:32;;;;;;;10.90;10.50;;;25.20;99.90;;;;;;5013487;28;20220;-61
2023/07/10 01:14:59;;;;;;;11.32;10.93;;;25.20;99.90;;;;;;5012486;28;20209;-61
2023/07/10 01:17:28;;;;;;;11.25;10.85;;;25.20;99.90;;;;;;5006658;28;20205;-62
2023/07/10 01:20:00;;;;;;;11.23;10.82;;;25.20;99.90;;;;;;5010263;28;20229;-59
2023/07/10 01:22:29;;;;;;;11.43;11.02;;;25.10;99.90;;;;;;5010842;28;20213;-61
2023/07/10 01:24:56;;;;;;;11.75;11.35;;;25.10;99.90;;;;;;5011016;28;20212;-59
2023/07/10 01:27:24;;;;;;;11.73;11.32;;;25.10;99.90;;;;;;5010559;28;20267;-60
2023/07/10 01:29:57;;;;;;;13.07;12.57;;;25.10;99.90;;;;;;5009385;28;20770;-61
2023/07/10 01:32:27;;;;;;;12.32;11.82;;;25.00;99.90;;;;;;5025577;28;20200;-60
2023/07/10 01:34:58;;;;;;;11.70;11.30;;;24.90;99.90;;;;;;5022430;28;20213;-60
2023/07/10 01:37:25;;;;;;;11.80;11.40;;;25.00;99.90;;;;;;5014480;28;20658;-59
2023/07/10 01:39:54;;;;;;;12.38;11.90;;;25.00;99.90;;;;;;5013766;28;20209;-59
2023/07/10 01:42:21;;;;;;;12.27;11.82;;;25.10;99.90;;;;;;5014472;28;20209;-60
2023/07/10 01:44:50;;;;;;;13.10;12.60;;;25.00;99.90;;;;;;5014167;28;20219;-58
2023/07/10 01:47:17;;;;;;;12.57;12.18;;;24.90;99.90;;;;;;5012927;28;20275;-59
2023/07/10 01:49:48;;;;;;;12.00;11.60;;;24.90;99.90;;;;;;5014296;28;20211;-59
2023/07/10 01:52:17;;;;;;;13.68;13.07;;;24.80;99.90;;;;;;5015592;28;20189;-59
2023/07/10 01:54:44;;;;;;;13.52;13.02;;;24.80;99.90;;;;;;5015839;28;20231;-60
2023/07/10 01:57:14;;;;;;;12.55;12.10;;;24.70;99.90;;;;;;5016937;28;20198;-60
2023/07/10 01:59:41;;;;;;;13.00;12.55;;;24.70;99.90;;;;;;5015398;28;20208;-61
2023/07/10 02:02:08;;;;;;;12.43;12.02;;;24.60;99.90;;;;;;5014908;28;20205;-61
2023/07/10 02:04:35;;;;;;;12.75;12.35;;;24.50;99.90;;;;;;5014962;28;20201;-59
2023/07/10 02:07:02;;;;;;;12.10;11.65;;;24.40;99.90;;;;;;5017406;28;20225;-59
2023/07/10 02:09:30;;;;;;;12.50;12.10;;;24.40;99.90;;;;;;5033988;28;20209;-60
2023/07/10 02:11:57;;;;;;;12.88;12.45;;;24.40;99.90;;;;;;5034168;28;20240;-60
2023/07/10 02:14:26;;;;;;;11.93;11.52;;;24.30;99.90;;;;;;5034905;28;20568;-61
2023/07/10 02:16:53;;;;;;;12.00;11.60;;;24.20;99.90;;;;;;5034424;28;20208;-60
2023/07/10 02:19:20;;;;;;;11.75;11.35;;;24.40;99.90;;;;;;5034078;28;20211;-59
2023/07/10 02:21:48;;;;;;;13.05;12.43;;;24.60;99.90;;;;;;5021959;28;20308;-60
2023/07/10 02:24:15;;;;;;;12.00;11.60;;;24.80;99.90;;;;;;5024461;28;20205;-68
2023/07/10 02:26:42;;;;;;;14.55;14.05;;;24.60;99.90;;;;;;5016038;28;20225;-67
2023/07/10 02:29:09;;;;;;;13.80;13.30;;;24.60;99.90;;;;;;5014753;28;20209;-66
2023/07/10 02:31:37;;;;;;;12.57;12.18;;;24.50;99.90;;;;;;5014940;28;20316;-68
2023/07/10 02:34:04;;;;;;;12.18;11.77;;;24.40;99.90;;;;;;5015226;28;20219;-68
2023/07/10 02:36:31;;;;;;;12.05;11.65;;;24.20;99.90;;;;;;5018218;28;20227;-67
2023/07/10 02:38:58;;;;;;;12.68;12.27;;;24.20;99.90;;;;;;5021495;28;20251;-68
2023/07/10 02:41:25;;;;;;;14.13;13.63;;;24.30;99.90;;;;;;5016963;28;20267;-68
2023/07/10 02:43:52;;;;;;;14.20;13.70;;;24.30;99.90;;;;;;5023012;28;20196;-66
2023/07/10 02:46:19;;;;;;;14.15;13.65;;;24.40;99.90;;;;;;5016136;28;20231;-67
2023/07/10 02:48:47;;;;;;;15.10;14.60;;;24.40;99.90;;;;;;5014623;28;20209;-66
2023/07/10 02:51:14;;;;;;;15.93;15.38;;;24.30;99.90;;;;;;5000816;28;20238;-66
2023/07/10 02:53:41;;;;;;;16.50;15.93;;;24.40;99.90;;;;;;4995471;28;20210;-67
2023/07/10 02:56:07;;;;;;;16.98;16.38;;;24.40;99.90;;;;;;4994802;28;20613;-67
2023/07/10 02:58:34;;;;;;;15.02;14.43;;;24.40;99.90;;;;;;4994729;28;20277;-68
2023/07/10 03:01:03;;;;;;;14.70;14.20;;;24.40;99.90;;;;;;4993688;28;20236;-67
2023/07/10 03:03:30;;;;;;;16.45;15.85;;;24.30;99.90;;;;;;4994384;28;20208;-67
2023/07/10 03:06:01;;;;;;;16.10;15.50;;;24.40;99.90;;;;;;4993434;28;20297;-66
2023/07/10 03:08:29;;;;;;;15.70;15.10;;;24.30;99.90;;;;;;4993336;28;20202;-67
2023/07/10 03:11:00;;;;;;;15.15;14.63;;;24.40;99.90;;;;;;5003381;28;20243;-67
2023/07/10 03:13:27;;;;;;;13.48;12.98;;;24.40;99.90;;;;;;5013113;28;20232;-66
2023/07/10 03:16:00;;;;;;;13.45;12.95;;;24.30;99.90;;;;;;5013187;28;20201;-68
2023/07/10 03:18:26;;;;;;;14.32;13.82;;;24.20;99.90;;;;;;5012654;28;20212;-68
2023/07/10 03:20:53;;;;;;;13.32;12.82;;;24.10;99.90;;;;;;5012105;28;20449;-66
2023/07/10 03:23:21;;;;;;;12.88;12.38;;;24.20;99.90;;;;;;5012796;28;20240;-66
2023/07/10 03:25:48;;;;;;;12.95;12.45;;;24.20;99.90;;;;;;5012464;28;20657;-67
2023/07/10 03:28:15;;;;;;;13.68;13.18;;;24.20;99.90;;;;;;5012499;28;20311;-67
2023/07/10 03:30:42;;;;;;;13.18;12.68;;;24.10;99.90;;;;;;5012091;28;20229;-65
2023/07/10 03:33:12;;;;;;;12.73;12.13;;;24.10;99.90;;;;;;5012676;28;20696;-67
2023/07/10 03:35:39;;;;;;;13.18;12.73;;;24.00;99.90;;;;;;5013059;28;20216;-67
2023/07/10 03:38:06;;;;;;;19.20;18.45;;;23.80;99.90;;;;;;5012849;28;20616;-67
2023/07/10 03:40:34;;;;;;;20.50;19.70;;;23.60;99.90;;;;;;5011314;28;20624;-67
2023/07/10 03:43:01;;;;;;;23.98;23.15;;;23.50;99.90;;;;;;5012223;28;20220;-66
2023/07/10 03:45:30;;;;;;;21.75;20.98;;;23.50;99.90;;;;;;5012020;28;20208;-66
2023/07/10 03:47:57;;;;;;;31.27;30.17;;;23.50;99.90;;;;;;5012598;28;20233;-67
2023/07/10 03:50:24;;;;;;;30.63;29.45;;;23.60;99.90;;;;;;5011208;28;20225;-68
2023/07/10 03:52:51;;;;;;;27.95;26.85;;;23.70;99.90;;;;;;5012933;28;20266;-65
2023/07/10 03:55:17;;;;;;;35.90;34.58;;;23.70;99.90;;;;;;5018259;28;20215;-66
2023/07/10 03:57:46;;;;;;;21.05;20.25;;;23.60;99.90;;;;;;5017869;28;20295;-67
2023/07/10 04:00:13;;;;;;;26.27;25.30;;;23.60;99.90;;;;;;5012979;28;20578;-66
2023/07/10 04:02:40;;;;;;;27.20;26.20;;;23.50;99.90;;;;;;5017300;28;20209;-68
2023/07/10 04:05:07;;;;;;;31.75;30.63;;;23.40;99.90;;;;;;5020420;28;20273;-67
2023/07/10 04:07:34;;;;;;;51.05;49.25;;;23.40;99.90;;;;;;5023426;28;20229;-67
2023/07/10 04:10:01;;;;;;;50.75;48.92;;;23.30;99.90;;;;;;5015659;28;20231;-66
2023/07/10 04:12:28;;;;;;;61.55;59.05;;;23.20;99.90;;;;;;5013405;28;20197;-67
2023/07/10 04:14:56;;;;;;;59.53;57.33;;;23.20;99.90;;;;;;5013825;28;20705;-66
2023/07/10 04:17:23;;;;;;;60.28;58.08;;;23.10;99.90;;;;;;5018919;28;20212;-67
2023/07/10 04:19:50;;;;;;;54.78;52.80;;;23.00;99.90;;;;;;5014056;28;20205;-67
2023/07/10 04:22:16;;;;;;;61.22;59.03;;;23.00;99.90;;;;;;5013784;28;20205;-66
2023/07/10 04:24:43;;;;;;;54.75;52.78;;;23.10;99.90;;;;;;5012566;28;20247;-67
2023/07/10 04:27:10;;;;;;;52.92;51.03;;;23.10;99.90;;;;;;5011962;28;20229;-68
2023/07/10 04:29:37;;;;;;;52.03;50.17;;;23.10;99.90;;;;;;5041996;22;20242;-67
2023/07/10 04:32:07;;;;;;;51.33;49.42;;;23.10;99.90;;;;;;5055819;28;20291;-67
2023/07/10 04:34:33;;;;;;;57.05;55.00;;;23.20;99.90;;;;;;5052221;28;20210;-69
2023/07/10 04:37:00;;;;;;;30.38;29.33;;;23.20;99.90;;;;;;5046549;28;20200;-66
2023/07/10 04:39:27;;;;;;;27.42;26.42;;;23.40;99.90;;;;;;5044667;28;20215;-68
2023/07/10 04:41:54;;;;;;;36.92;35.63;;;23.50;99.90;;;;;;5052173;28;20215;-69
2023/07/10 04:44:21;;;;;;;42.03;40.47;;;23.50;99.90;;;;;;5050829;28;20210;-67
2023/07/10 04:46:47;;;;;;;39.15;37.75;;;23.50;99.90;;;;;;5050136;28;20219;-66
2023/07/10 04:49:16;;;;;;;37.08;35.63;;;23.50;99.90;;;;;;5051342;28;20310;-67
2023/07/10 04:51:42;;;;;;;39.17;37.70;;;23.50;99.90;;;;;;5051151;28;20207;-66
2023/07/10 04:54:09;;;;;;;39.13;37.67;;;23.60;99.90;;;;;;5051692;28;20208;-67
2023/07/10 04:56:36;;;;;;;36.88;35.55;;;23.60;99.90;;;;;;5051535;28;20735;-67
2023/07/10 04:59:03;;;;;;;37.25;35.88;;;23.70;99.90;;;;;;5051755;28;20210;-64
2023/07/10 05:01:33;;;;;;;111.35;106.18;;;23.70;99.90;;;;;;5051860;28;20207;-66
2023/07/10 05:04:00;;;;;;;35.78;34.47;;;23.80;99.90;;;;;;5050822;28;20729;-67
2023/07/10 05:06:29;;;;;;;36.20;34.90;;;23.70;99.90;;;;;;5050600;28;20287;-67
2023/07/10 05:08:58;;;;;;;72.88;70.25;;;23.70;99.90;;;;;;5050519;28;20211;-66
2023/07/10 05:11:27;;;;;;;73.60;70.82;;;23.60;99.90;;;;;;5052406;28;20212;-67
2023/07/10 05:13:54;;;;;;;105.13;101.38;;;23.70;99.90;;;;;;5050548;28;20225;-66
2023/07/10 05:16:21;;;;;;;34.20;32.95;;;23.80;99.90;;;;;;5050892;28;20217;-68
2023/07/10 05:18:48;;;;;;;13.52;12.95;;;23.80;99.90;;;;;;5049954;28;20232;-68
2023/07/10 05:21:15;;;;;;;21.00;20.15;;;23.90;99.90;;;;;;5046747;28;20204;-64
2023/07/10 05:23:43;;;;;;;9.13;8.82;;;23.90;99.90;;;;;;5050785;28;20303;-66
2023/07/10 05:26:12;;;;;;;10.27;9.93;;;24.10;99.90;;;;;;5050481;28;20642;-65
2023/07/10 05:28:39;;;;;;;14.65;14.10;;;24.20;99.90;;;;;;5050970;28;20224;-64
2023/07/10 05:31:09;;;;;;;11.23;10.82;;;24.40;99.90;;;;;;5049103;28;20323;-66
2023/07/10 05:33:37;;;;;;;9.35;9.05;;;24.40;99.90;;;;;;5051372;28;20732;-64
2023/07/10 05:36:06;;;;;;;8.65;8.35;;;24.50;99.90;;;;;;5051309;28;20204;-65
2023/07/10 05:38:35;;;;;;;8.93;8.63;;;24.50;99.90;;;;;;5050587;28;20231;-65
2023/07/10 05:41:04;;;;;;;9.27;8.98;;;24.60;99.90;;;;;;5055019;28;20350;-66
2023/07/10 05:43:32;;;;;;;9.77;9.48;;;24.70;99.90;;;;;;5048536;28;20366;-66
2023/07/10 05:45:59;;;;;;;9.15;8.85;;;24.80;99.90;;;;;;5051461;28;20200;-67
2023/07/10 05:48:27;;;;;;;10.95;10.55;;;24.80;99.90;;;;;;5050994;28;20230;-65
2023/07/10 05:50:54;;;;;;;10.25;9.85;;;24.90;99.90;;;;;;5061315;28;20231;-64
2023/07/10 05:53:21;;;;;;;9.70;9.40;;;25.10;99.90;;;;;;5051010;28;20208;-66
2023/07/10 05:55:49;;;;;;;9.85;9.48;;;25.40;99.90;;;;;;5049304;28;20204;-66
2023/07/10 05:58:19;;;;;;;9.50;9.20;;;25.60;99.90;;;;;;5049953;28;20204;-66
2023/07/10 06:00:48;;;;;;;9.80;9.50;;;25.70;99.90;;;;;;5049639;28;20231;-65
2023/07/10 06:03:15;;;;;;;10.23;9.82;;;25.80;99.90;;;;;;5049366;28;20204;-64
2023/07/10 06:05:42;;;;;;;10.95;10.55;;;25.80;99.90;;;;;;5050613;28;20231;-66
2023/07/10 06:08:11;;;;;;;11.63;11.23;;;25.90;99.90;;;;;;5043018;28;20226;-65
2023/07/10 06:10:38;;;;;;;11.25;10.85;;;26.00;99.90;;;;;;5049535;28;20228;-67
2023/07/10 06:13:05;;;;;;;11.77;11.27;;;26.10;99.90;;;;;;5049251;28;20204;-66
2023/07/10 06:15:33;;;;;;;11.38;10.98;;;26.20;99.90;;;;;;5049557;28;20688;-65
2023/07/10 06:17:59;;;;;;;11.18;10.77;;;26.30;99.90;;;;;;5050429;28;20204;-66
2023/07/10 06:20:26;;;;;;;12.60;12.18;;;26.40;99.90;;;;;;5050903;28;20242;-64
2023/07/10 06:22:53;;;;;;;10.50;10.10;;;26.60;99.90;;;;;;5054010;28;20236;-67
2023/07/10 06:25:20;;;;;;;10.15;9.75;;;26.70;99.90;;;;;;5053297;28;20291;-64
2023/07/10 06:27:47;;;;;;;10.90;10.50;;;26.90;99.90;;;;;;5052958;28;20307;-65
2023/07/10 06:30:14;;;;;;;10.60;10.20;;;26.90;99.90;;;;;;5053012;28;20232;-65
2023/07/10 06:32:42;;;;;;;10.45;10.05;;;27.00;99.90;;;;;;5054634;28;20700;-66
2023/07/10 06:35:12;;;;;;;10.73;10.32;;;27.10;99.90;;;;;;5053001;28;20219;-65
2023/07/10 06:37:40;;;;;;;10.57;10.18;;;27.20;99.90;;;;;;5052509;28;20207;-65
2023/07/10 06:40:09;;;;;;;12.50;12.00;;;27.40;99.90;;;;;;5071918;28;20292;-66
2023/07/10 06:42:36;;;;;;;10.30;9.90;;;27.40;99.90;;;;;;5072344;28;20207;-66
2023/07/10 06:45:04;;;;;;;10.20;9.88;;;27.50;99.90;;;;;;5072727;28;20207;-66
2023/07/10 06:47:31;;;;;;;11.00;10.60;;;27.60;99.90;;;;;;5072233;28;20577;-65
2023/07/10 06:50:00;;;;;;;11.13;10.73;;;27.70;99.90;;;;;;5071806;28;20727;-66
2023/07/10 06:52:27;;;;;;;11.40;11.00;;;27.70;99.90;;;;;;5073741;28;20203;-67
2023/07/10 06:54:53;;;;;;;10.98;10.57;;;27.80;99.90;;;;;;5074164;28;20207;-65
2023/07/10 06:57:20;;;;;;;10.80;10.40;;;27.70;99.90;;;;;;5074443;28;20306;-65
2023/07/10 06:59:47;;;;;;;10.93;10.52;;;27.70;99.90;;;;;;5072628;28;20314;-64
2023/07/10 07:02:14;;;;;;;10.50;10.10;;;27.80;99.90;;;;;;5053630;28;20208;-65
2023/07/10 07:04:42;;;;;;;10.60;10.20;;;27.90;99.90;;;;;;5052472;28;20206;-67
2023/07/10 07:07:10;;;;;;;11.95;11.55;;;27.90;99.90;;;;;;5052527;28;20646;-67
2023/07/10 07:09:37;;;;;;;10.50;10.10;;;27.90;99.90;;;;;;5052213;28;20223;-65
2023/07/10 07:12:04;;;;;;;10.70;10.30;;;28.00;99.90;;;;;;5052390;28;20692;-65
2023/07/10 07:14:32;;;;;;;11.88;11.48;;;28.10;99.90;;;;;;5053294;28;20220;-65
2023/07/10 07:16:59;;;;;;;11.10;10.70;;;28.30;99.90;;;;;;5053919;28;20211;-65
2023/07/10 07:19:26;;;;;;;11.80;11.25;;;28.20;99.90;;;;;;5052618;28;20230;-68
2023/07/10 07:21:52;;;;;;;14.07;13.52;;;28.30;99.90;;;;;;5052793;28;20275;-64
2023/07/10 07:24:21;;;;;;;11.77;11.38;;;28.30;99.90;;;;;;5052785;28;20204;-64
2023/07/10 07:26:48;;;;;;;12.10;11.63;;;28.10;99.90;;;;;;5054202;28;20291;-67
2023/07/10 07:29:14;;;;;;;11.70;11.30;;;28.20;99.90;;;;;;5065138;28;20322;-67
2023/07/10 07:31:41;;;;;;;11.13;10.73;;;28.30;99.90;;;;;;5067836;28;20255;-68
2023/07/10 07:34:09;;;;;;;11.25;10.85;;;28.50;99.90;;;;;;5057559;28;20272;-65
2023/07/10 07:36:37;;;;;;;11.55;11.15;;;28.70;99.90;;;;;;5053459;28;20235;-67
2023/07/10 07:39:05;;;;;;;11.98;11.48;;;28.70;99.90;;;;;;5053711;28;20204;-67
2023/07/10 07:41:34;;;;;;;11.35;10.95;;;28.90;99.90;;;;;;5054381;28;20207;-66
2023/07/10 07:44:01;;;;;;;11.82;11.43;;;28.90;99.90;;;;;;5054460;28;20265;-64
2023/07/10 07:46:28;;;;;;;22.38;21.52;;;29.00;99.90;;;;;;5054361;28;20204;-66
2023/07/10 07:48:55;;;;;;;12.38;11.88;;;28.80;99.90;;;;;;5052571;28;20694;-67
2023/07/10 07:51:22;;;;;;;12.38;11.98;;;28.80;99.90;;;;;;5058046;28;20273;-65
2023/07/10 07:54:01;;;;;;;13.55;13.05;;;28.90;99.90;;;;;;5053124;28;20571;-65
2023/07/10 07:56:27;;;;;;;11.85;11.45;;;29.00;99.90;;;;;;5052716;28;20216;-64
2023/07/10 07:58:56;;;;;;;12.30;11.80;;;28.90;99.90;;;;;;5058848;28;20268;-65
2023/07/10 08:01:22;;;;;;;11.73;11.32;;;29.00;99.90;;;;;;5056827;28;20280;-66
2023/07/10 08:03:49;;;;;;;17.40;16.75;;;29.30;99.90;;;;;;5063060;28;20267;-65
2023/07/10 08:06:16;;;;;;;12.70;12.27;;;29.50;99.90;;;;;;5062638;28;20210;-66
2023/07/10 08:08:43;;;;;;;13.48;12.98;;;29.80;99.90;;;;;;5060329;28;20232;-66
2023/07/10 08:11:10;;;;;;;13.10;12.60;;;29.70;99.90;;;;;;5055378;28;20224;-66
2023/07/10 08:13:37;;;;;;;13.00;12.50;;;29.60;99.90;;;;;;5052418;28;20214;-66
2023/07/10 08:16:05;;;;;;;11.63;11.23;;;29.60;99.90;;;;;;5053146;28;20238;-65
2023/07/10 08:18:32;;;;;;;13.05;12.55;;;29.60;99.90;;;;;;5052336;28;20207;-67
2023/07/10 08:21:03;;;;;;;12.57;12.15;;;29.70;99.90;;;;;;5052486;28;20314;-65
2023/07/10 08:23:30;;;;;;;12.65;12.20;;;29.80;99.90;;;;;;5052553;28;20212;-65
2023/07/10 08:25:57;;;;;;;12.75;12.32;;;29.90;99.90;;;;;;5051994;28;20200;-65
2023/07/10 08:28:24;;;;;;;12.90;12.43;;;30.00;99.90;;;;;;5052026;28;20220;-65
2023/07/10 08:30:51;;;;;;;12.48;11.98;;;29.80;99.90;;;;;;5051001;28;20743;-65
2023/07/10 08:33:19;;;;;;;14.35;13.82;;;29.80;99.90;;;;;;5052109;28;20208;-66
2023/07/10 08:35:54;;;;;;;11.02;10.63;;;30.00;99.90;;;;;;5051789;28;20311;-66
2023/07/10 08:38:20;;;;;;;13.95;13.35;;;30.20;99.90;;;;;;5052343;28;20638;-65
2023/07/10 08:40:50;;;;;;;10.27;9.88;;;30.30;99.90;;;;;;5050607;28;20220;-65
2023/07/10 08:43:31;;;;;;;10.38;9.98;;;30.10;99.90;;;;;;5050537;28;20208;-68
2023/07/10 08:46:04;;;;;;;11.40;11.00;;;30.20;99.90;;;;;;5053594;28;20206;-66
2023/07/10 08:48:36;;;;;;;15.27;14.68;;;30.10;99.90;;;;;;5061770;28;20211;-67
2023/07/10 08:51:13;;;;;;;13.73;13.13;;;30.10;99.90;;;;;;5078132;28;20282;-64
2023/07/10 08:53:44;;;;;;;13.38;12.90;;;30.20;99.90;;;;;;5078732;28;20199;-67
2023/07/10 08:56:22;;;;;;;24.27;23.38;;;30.30;99.90;;;;;;5068071;28;20264;-68
2023/07/10 08:58:49;;;;;;;17.38;16.70;;;30.40;99.90;;;;;;5051243;28;20288;-64
2023/07/10 09:01:28;;;;;;;16.95;16.35;;;30.30;99.90;;;;;;5051451;28;20219;-65
2023/07/10 09:03:59;;;;;;;46.28;44.20;;;30.30;99.90;;;;;;5054041;28;20188;-66
2023/07/10 09:06:38;;;;;;;16.02;15.43;;;30.20;99.90;;;;;;5056363;28;20200;-67
2023/07/10 09:09:13;;;;;;;16.55;15.95;;;30.20;99.90;;;;;;5053663;28;20225;-64
2023/07/10 09:11:40;;;;;;;38.08;36.45;;;30.10;99.90;;;;;;5051464;28;20224;-67
2023/07/10 09:14:18;;;;;;;15.93;15.32;;;30.20;99.90;;;;;;5051044;28;20733;-66
2023/07/10 09:16:46;;;;;;;14.70;14.18;;;30.10;99.90;;;;;;5052303;28;20199;-67
2023/07/10 09:19:19;;;;;;;14.00;13.50;;;30.20;99.90;;;;;;5031429;28;20224;-65
2023/07/10 09:21:46;;;;;;;12.60;12.15;;;30.30;99.90;;;;;;5030791;28;20260;-67
2023/07/10 09:24:18;;;;;;;13.23;12.73;;;30.50;99.90;;;;;;5030969;28;20201;-66
2023/07/10 09:26:45;;;;;;;11.95;11.55;;;30.70;99.90;;;;;;5045356;28;20206;-66
2023/07/10 09:29:32;;;;;;;12.02;11.63;;;30.70;99.90;;;;;;5050536;28;20231;-65
2023/07/10 09:32:09;;;;;;;10.90;10.50;;;30.80;99.90;;;;;;5053008;28;20188;-66
2023/07/10 09:34:45;;;;;;;11.30;10.90;;;30.80;99.90;;;;;;5051313;28;20203;-67
2023/07/10 09:37:14;;;;;;;31.30;29.98;;;30.70;99.90;;;;;;5052910;28;20206;-66
2023/07/10 09:39:41;;;;;;;12.40;12.00;;;30.80;99.90;;;;;;5050328;28;20347;-65
2023/07/10 09:42:15;;;;;;;13.30;12.80;;;30.60;99.90;;;;;;5049860;28;20280;-66
2023/07/10 09:44:48;;;;;;;23.02;22.20;;;30.70;99.90;;;;;;5050007;28;20210;-68
2023/07/10 09:47:16;;;;;;;12.82;12.32;;;30.70;99.90;;;;;;5050705;28;20207;-66
2023/07/10 09:49:47;;;;;;;14.77;14.27;;;30.80;99.90;;;;;;5049135;28;20224;-66
2023/07/10 09:52:20;;;;;;;11.60;11.20;;;31.00;99.90;;;;;;5050893;28;20212;-67
2023/07/10 09:54:48;;;;;;;11.90;11.45;;;31.20;99.90;;;;;;5055308;28;20206;-67
2023/07/10 09:57:17;;;;;;;14.50;14.00;;;31.40;99.90;;;;;;5055777;28;20200;-66
2023/07/10 09:59:49;;;;;;;18.92;18.23;;;31.20;99.90;;;;;;5054410;28;20726;-66
2023/07/10 10:02:21;;;;;;;14.38;13.88;;;30.70;99.90;;;;;;5059316;28;20283;-68
2023/07/10 10:04:54;;;;;;;11.77;11.38;;;30.70;99.90;;;;;;5054864;28;20211;-65
2023/07/10 10:07:22;;;;;;;13.18;12.63;;;31.00;99.90;;;;;;5055161;28;20189;-66
2023/07/10 10:10:18;;;;;;;19.08;18.27;;;31.10;99.90;;;;;;5053829;28;20254;-67
2023/07/10 10:12:46;;;;;;;11.15;10.68;;;31.00;99.90;;;;;;5054502;28;20184;-66
2023/07/10 10:15:23;;;;;;;14.82;14.27;;;31.10;99.90;;;;;;5054373;28;20312;-66
2023/07/10 10:17:51;;;;;;;11.70;11.30;;;31.10;99.90;;;;;;5054608;28;20301;-67
2023/07/10 10:20:26;;;;;;;12.88;12.40;;;31.10;99.90;;;;;;5054023;28;20232;-66
2023/07/10 10:22:53;;;;;;;66.15;62.45;;;31.10;99.90;;;;;;5054216;28;20214;-66
2023/07/10 10:25:29;;;;;;;11.40;11.00;;;31.20;99.90;;;;;;5053836;28;20341;-66
2023/07/10 10:28:05;;;;;;;10.50;10.10;;;31.10;99.90;;;;;;5054035;28;20283;-66
2023/07/10 10:30:37;;;;;;;10.70;10.30;;;31.40;99.90;;;;;;5044797;22;20232;-68
2023/07/10 10:33:15;;;;;;;11.77;11.38;;;31.70;99.90;;;;;;5013868;28;20300;-66
2023/07/10 10:35:55;;;;;;;12.13;11.73;;;31.80;99.90;;;;;;5014521;28;20209;-65
2023/07/10 10:38:38;;;;;;;12.48;12.07;;;31.90;99.90;;;;;;5014447;28;20216;-65
2023/07/10 10:41:19;;;;;;;25.17;24.17;;;31.80;99.90;;;;;;5013018;28;20229;-66
2023/07/10 10:43:57;;;;;;;13.98;13.48;;;31.70;99.90;;;;;;5014107;28;20232;-67
2023/07/10 10:46:34;;;;;;;9.48;9.15;;;31.60;99.90;;;;;;5013202;28;20813;-67
2023/07/10 10:49:35;;;;;;;10.88;10.48;;;31.70;99.90;;;;;;5012633;28;20239;-66
2023/07/10 10:52:11;;;;;;;12.15;11.68;;;32.00;99.90;;;;;;5008025;28;20263;-66
2023/07/10 10:54:52;;;;;;;12.75;12.25;;;32.00;99.90;;;;;;5012984;28;20211;-67
2023/07/10 10:57:31;;;;;;;11.88;11.48;;;32.00;99.90;;;;;;5012761;28;20582;-67
2023/07/10 11:00:10;;;;;;;11.35;10.93;;;32.10;99.90;;;;;;5011893;28;20240;-67
2023/07/10 11:02:49;;;;;;;11.95;11.55;;;32.40;99.90;;;;;;5012317;28;20201;-67
2023/07/10 11:05:22;;;;;;;16.77;16.17;;;32.50;99.90;;;;;;5011786;28;20571;-67
2023/07/10 11:07:55;;;;;;;12.05;11.65;;;32.70;99.90;;;;;;5011443;28;20210;-68
2023/07/10 11:10:30;;;;;;;14.27;13.77;;;32.50;99.90;;;;;;5011945;28;20609;-66
2023/07/10 11:12:57;;;;;;;12.52;12.05;;;32.20;99.90;;;;;;5011228;28;20382;-67
2023/07/10 11:15:27;;;;;;;12.27;11.77;;;32.40;99.90;;;;;;5010130;28;20219;-68
2023/07/10 11:17:55;;;;;;;16.85;16.23;;;32.70;99.90;;;;;;5011566;28;20219;-66
2023/07/10 11:20:25;;;;;;;12.82;12.43;;;32.80;99.90;;;;;;5010922;28;20253;-65
2023/07/10 11:22:55;;;;;;;12.15;11.75;;;32.50;99.90;;;;;;5013080;28;20304;-68
2023/07/10 11:25:34;;;;;;;11.48;11.07;;;32.70;99.90;;;;;;5012556;28;20950;-66
2023/07/10 11:28:03;;;;;;;13.23;12.73;;;32.90;99.90;;;;;;5012624;28;20634;-66
2023/07/10 11:30:33;;;;;;;23.40;22.38;;;33.00;99.90;;;;;;5011857;28;20583;-67
2023/07/10 11:33:03;;;;;;;18.52;17.83;;;33.00;99.90;;;;;;5012472;28;20239;-65
2023/07/10 11:35:30;;;;;;;35.50;34.08;;;32.90;99.90;;;;;;5013241;28;20210;-67
2023/07/10 11:38:18;;;;;;;10.95;10.55;;;32.80;99.90;;;;;;5017958;28;20217;-66
2023/07/10 11:40:51;;;;;;;20.98;20.08;;;32.70;99.90;;;;;;5014560;28;20270;-67
2023/07/10 11:43:55;;;;;;;17.10;16.50;;;32.70;99.90;;;;;;5011910;28;20206;-67
2023/07/10 11:46:34;;;;;;;12.63;12.13;;;32.80;99.90;;;;;;5011823;28;20224;-67
2023/07/10 11:49:17;;;;;;;10.65;10.25;;;33.00;99.90;;;;;;5010215;28;20225;-66
2023/07/10 11:52:05;;;;;;;10.45;10.05;;;33.00;99.90;;;;;;5010820;28;20315;-66
2023/07/10 11:54:43;;;;;;;8.40;8.10;;;33.10;99.90;;;;;;5012908;28;20248;-67
2023/07/10 11:57:17;;;;;;;9.07;8.77;;;33.20;99.90;;;;;;5012689;28;20228;-66
2023/07/10 11:59:51;;;;;;;12.82;12.38;;;33.50;99.90;;;;;;5011693;28;20283;-65
2023/07/10 12:02:32;;;;;;;9.15;8.85;;;33.60;99.90;;;;;;5010896;28;20590;-67
2023/07/10 12:05:00;;;;;;;8.98;8.68;;;33.40;99.90;;;;;;5011396;28;20617;-67
2023/07/10 12:07:28;;;;;;;8.60;8.30;;;33.30;99.90;;;;;;5011366;28;20221;-67
2023/07/10 12:10:00;;;;;;;8.38;8.07;;;33.40;99.90;;;;;;5010721;28;20236;-65
2023/07/10 12:12:32;;;;;;;8.75;8.45;;;33.30;99.90;;;;;;5021766;28;20201;-66
2023/07/10 12:15:02;;;;;;;9.50;9.20;;;33.30;99.90;;;;;;5030332;28;20211;-67
2023/07/10 12:17:31;;;;;;;9.98;9.57;;;33.40;99.90;;;;;;5010272;28;20209;-67
2023/07/10 12:20:01;;;;;;;12.98;12.48;;;33.60;99.90;;;;;;5008972;28;20221;-65
2023/07/10 12:22:35;;;;;;;17.23;16.63;;;33.30;99.90;;;;;;5010519;28;20219;-66
2023/07/10 12:25:10;;;;;;;11.90;11.50;;;32.90;99.90;;;;;;5011161;28;20668;-68
2023/07/10 12:27:38;;;;;;;9.25;8.95;;;32.80;99.90;;;;;;5010675;28;20209;-67
2023/07/10 12:30:14;;;;;;;9.05;8.75;;;32.80;99.90;;;;;;5008167;28;20259;-67
2023/07/10 12:32:41;;;;;;;9.57;9.27;;;33.10;99.90;;;;;;5011866;28;20258;-66
2023/07/10 12:35:17;;;;;;;9.77;9.48;;;33.20;99.90;;;;;;5011110;28;20205;-67
2023/07/10 12:37:48;;;;;;;10.10;9.70;;;33.40;99.90;;;;;;5010847;28;20213;-67
2023/07/10 12:40:18;;;;;;;9.77;9.38;;;33.60;99.90;;;;;;5012196;28;20236;-66
2023/07/10 12:42:47;;;;;;;10.35;10.00;;;33.80;99.90;;;;;;5010491;28;20628;-66